Time;durP1;ratioP1;P1;durP2;ratioP2;P2;SDS_P1;SDS_P2;PMS_P1;PMS_P2;Temp;Humidity;BMP_temperature;BMP_pressure;BME280_temperature;BME280_humidity;BME280_pressure;Samples;Min_cycle;Max_cycle;Signal;HPM_P1;HPM_P2
2022/09/22 00:01:52;;;;;;;6.72;4.35;;;10.50;99.90;;;;;;5030713;28;20057;-41
2022/09/22 00:04:17;;;;;;;6.68;3.47;;;10.40;99.90;;;;;;5030767;28;20033;-44
2022/09/22 00:06:50;;;;;;;5.20;3.00;;;10.40;99.90;;;;;;5020683;28;20025;-39
2022/09/22 00:09:17;;;;;;;8.52;3.40;;;10.40;99.90;;;;;;5028703;28;20504;-40
2022/09/22 00:11:48;;;;;;;5.13;3.15;;;10.40;99.90;;;;;;5030005;28;20113;-35
2022/09/22 00:14:19;;;;;;;7.22;3.45;;;10.40;99.90;;;;;;5028884;28;20029;-40
2022/09/22 00:16:57;;;;;;;5.25;3.05;;;10.40;99.90;;;;;;5017880;28;20025;-40
2022/09/22 00:19:32;;;;;;;8.50;3.28;;;10.30;99.90;;;;;;5032424;28;20108;-42
2022/09/22 00:21:58;;;;;;;5.78;3.00;;;10.30;99.90;;;;;;5034404;28;20034;-42
2022/09/22 00:24:25;;;;;;;7.65;2.92;;;10.30;99.90;;;;;;5035171;28;20109;-40
2022/09/22 00:26:56;;;;;;;6.00;3.90;;;10.30;99.90;;;;;;5034753;28;20030;-41
2022/09/22 00:29:26;;;;;;;3.80;2.67;;;10.30;99.90;;;;;;5035446;28;20083;-41
2022/09/22 00:31:53;;;;;;;6.65;3.38;;;10.20;99.90;;;;;;5026553;28;20025;-41
2022/09/22 00:34:20;;;;;;;5.85;2.90;;;10.20;99.90;;;;;;5027043;28;20030;-41
2022/09/22 00:36:47;;;;;;;7.82;3.28;;;10.20;99.90;;;;;;5032004;28;20144;-41
2022/09/22 00:39:13;;;;;;;6.95;3.28;;;10.10;99.90;;;;;;5035513;28;20482;-42
2022/09/22 00:41:43;;;;;;;4.20;2.85;;;10.20;99.90;;;;;;5035168;28;20456;-41
2022/09/22 00:44:35;;;;;;;4.85;3.13;;;10.10;99.90;;;;;;5034841;28;20021;-40
2022/09/22 00:47:21;;;;;;;7.63;3.60;;;10.10;99.90;;;;;;5034860;28;20401;-58
2022/09/22 00:50:06;;;;;;;6.90;3.20;;;10.10;99.90;;;;;;5033043;28;20021;-41
2022/09/22 00:52:54;;;;;;;5.65;2.92;;;10.10;99.90;;;;;;5032091;28;20458;-39
2022/09/22 00:55:31;;;;;;;7.03;3.40;;;10.10;99.90;;;;;;5029605;28;20026;-34
2022/09/22 00:58:00;;;;;;;4.43;2.88;;;10.00;99.90;;;;;;5025504;28;20030;-40
2022/09/22 01:00:25;;;;;;;6.50;3.30;;;10.00;99.90;;;;;;5034927;28;20035;-35
2022/09/22 01:02:55;;;;;;;7.22;3.40;;;10.00;99.90;;;;;;5049866;28;20112;-38
2022/09/22 01:05:23;;;;;;;5.65;3.17;;;10.00;99.90;;;;;;5033069;28;20474;-40
2022/09/22 01:07:49;;;;;;;5.97;3.00;;;10.00;99.90;;;;;;5022362;28;20022;-41
2022/09/22 01:10:15;;;;;;;9.13;3.22;;;10.00;99.90;;;;;;5032579;28;20125;-40
2022/09/22 01:13:03;;;;;;;6.72;2.78;;;10.00;99.90;;;;;;5023433;28;20096;-40
2022/09/22 01:15:37;;;;;;;7.72;2.75;;;10.00;99.90;;;;;;5023792;28;20038;-35
2022/09/22 01:18:22;;;;;;;4.10;2.92;;;10.00;99.90;;;;;;5033696;28;20033;-33
2022/09/22 01:21:18;;;;;;;4.47;2.97;;;10.00;99.90;;;;;;5035302;28;20120;-34
2022/09/22 01:24:19;;;;;;;5.55;3.00;;;10.00;99.90;;;;;;5032824;28;20021;-35
2022/09/22 01:27:38;;;;;;;6.85;3.25;;;10.00;99.90;;;;;;5018958;28;20052;-31
2022/09/22 01:30:09;;;;;;;5.03;2.97;;;9.90;99.90;;;;;;5008265;28;20049;-36
2022/09/22 01:33:02;;;;;;;3.85;2.70;;;9.90;99.90;;;;;;5032165;28;20072;-31
2022/09/22 01:35:40;;;;;;;6.30;3.13;;;9.90;99.90;;;;;;5033777;28;20021;-32
2022/09/22 01:38:34;;;;;;;6.65;2.47;;;9.80;99.90;;;;;;5030934;28;20038;-38
2022/09/22 01:41:09;;;;;;;7.40;2.70;;;9.80;99.90;;;;;;5030781;28;20052;-38
2022/09/22 01:43:41;;;;;;;4.50;2.58;;;9.80;99.90;;;;;;5029099;28;20580;-32
2022/09/22 01:46:27;;;;;;;10.00;3.28;;;9.80;99.90;;;;;;5033363;28;20172;-32
2022/09/22 01:48:55;;;;;;;5.55;3.17;;;9.70;99.90;;;;;;5033288;28;20028;-31
2022/09/22 01:51:27;;;;;;;10.13;3.60;;;9.70;99.90;;;;;;5033134;28;20036;-32
2022/09/22 01:53:58;;;;;;;9.35;3.72;;;9.70;99.90;;;;;;5032504;28;20389;-37
2022/09/22 01:56:28;;;;;;;7.57;2.90;;;9.70;99.90;;;;;;5025380;28;20124;-31
2022/09/22 01:58:58;;;;;;;6.65;2.85;;;9.70;99.90;;;;;;5029369;28;20482;-36
2022/09/22 02:01:29;;;;;;;6.55;3.22;;;9.80;99.90;;;;;;5033879;28;20385;-34
2022/09/22 02:04:10;;;;;;;6.07;3.00;;;9.80;99.90;;;;;;5033872;28;20116;-38
2022/09/22 02:07:01;;;;;;;6.15;3.45;;;9.80;99.90;;;;;;5031994;28;20025;-33
2022/09/22 02:09:30;;;;;;;13.77;3.63;;;9.80;99.90;;;;;;5025798;28;20460;-34
2022/09/22 02:11:57;;;;;;;11.30;3.25;;;9.80;99.90;;;;;;5030926;28;20474;-35
2022/09/22 02:14:24;;;;;;;3.70;3.00;;;9.80;99.90;;;;;;5030255;28;20022;-37
2022/09/22 02:16:51;;;;;;;3.65;3.15;;;9.80;99.90;;;;;;5034229;28;20494;-34
2022/09/22 02:19:21;;;;;;;6.57;3.35;;;9.80;99.90;;;;;;5020739;28;20121;-30
2022/09/22 02:21:48;;;;;;;5.22;3.05;;;9.80;99.90;;;;;;5025748;28;20033;-31
2022/09/22 02:24:27;;;;;;;5.85;2.90;;;9.80;99.90;;;;;;5027603;28;20474;-31
2022/09/22 02:26:54;;;;;;;6.90;3.45;;;9.80;99.90;;;;;;5023722;28;20040;-36
2022/09/22 02:29:21;;;;;;;3.60;3.00;;;9.70;99.90;;;;;;5028053;28;20543;-32
2022/09/22 02:31:49;;;;;;;8.90;3.33;;;9.70;99.90;;;;;;5033589;28;20025;-35
2022/09/22 02:34:14;;;;;;;6.80;3.03;;;9.70;99.90;;;;;;5031874;28;20045;-40
2022/09/22 02:37:05;;;;;;;16.77;4.35;;;9.80;99.90;;;;;;5022961;28;20022;-33
2022/09/22 02:39:43;;;;;;;11.60;3.33;;;9.80;99.90;;;;;;5022715;28;20034;-35
2022/09/22 02:42:25;;;;;;;7.05;3.00;;;9.80;99.90;;;;;;5025338;28;20502;-37
2022/09/22 02:45:07;;;;;;;4.28;3.33;;;9.80;99.90;;;;;;5028328;28;20557;-34
2022/09/22 02:47:39;;;;;;;6.25;2.78;;;9.80;99.90;;;;;;5032216;28;20523;-40
2022/09/22 02:50:08;;;;;;;5.50;2.85;;;9.80;99.90;;;;;;5034248;28;20041;-41
2022/09/22 02:52:37;;;;;;;6.60;3.00;;;9.80;99.90;;;;;;5029522;28;20099;-40
2022/09/22 02:55:03;;;;;;;4.50;2.97;;;9.80;99.90;;;;;;5021196;28;20065;-32
2022/09/22 02:57:29;;;;;;;3.50;2.83;;;9.70;99.90;;;;;;5023338;28;20546;-33
2022/09/22 02:59:54;;;;;;;7.68;3.58;;;9.70;99.90;;;;;;5022732;28;20120;-36
2022/09/22 03:02:20;;;;;;;6.88;3.47;;;9.70;99.90;;;;;;5031328;28;20132;-38
2022/09/22 03:04:46;;;;;;;8.13;3.28;;;9.70;99.90;;;;;;5022552;28;20475;-32
2022/09/22 03:07:12;;;;;;;6.18;3.55;;;9.70;99.90;;;;;;5025287;28;20108;-35
2022/09/22 03:09:37;;;;;;;8.60;3.08;;;9.60;99.90;;;;;;5030276;28;20029;-33
2022/09/22 03:12:03;;;;;;;4.72;3.28;;;9.60;99.90;;;;;;5031035;28;20481;-33
2022/09/22 03:14:29;;;;;;;4.13;3.33;;;9.60;99.90;;;;;;5029090;28;20021;-34
2022/09/22 03:16:54;;;;;;;6.15;3.10;;;9.60;99.90;;;;;;5032834;28;20417;-36
2022/09/22 03:19:20;;;;;;;7.40;3.25;;;9.60;99.90;;;;;;5031906;28;20078;-52
2022/09/22 03:21:46;;;;;;;7.78;3.40;;;9.50;99.90;;;;;;5032393;28;20033;-40
2022/09/22 03:24:11;;;;;;;14.75;3.67;;;9.50;99.90;;;;;;5047732;28;20048;-39
2022/09/22 03:26:37;;;;;;;3.22;2.80;;;9.50;99.90;;;;;;5056903;28;20551;-41
2022/09/22 03:29:03;;;;;;;9.18;3.42;;;9.50;99.90;;;;;;5031233;28;20025;-43
2022/09/22 03:31:28;;;;;;;6.72;3.47;;;9.50;99.90;;;;;;5031314;28;20025;-44
2022/09/22 03:33:54;;;;;;;4.82;3.40;;;9.50;99.90;;;;;;5033036;28;20033;-41
2022/09/22 03:36:19;;;;;;;5.57;3.22;;;9.40;99.90;;;;;;5048246;28;20156;-41
2022/09/22 03:38:45;;;;;;;6.50;3.53;;;9.40;99.90;;;;;;5025380;28;20021;-41
2022/09/22 03:41:11;;;;;;;5.57;3.30;;;9.40;99.90;;;;;;5032554;28;20076;-41
2022/09/22 03:43:36;;;;;;;3.30;2.72;;;9.40;99.90;;;;;;5023866;28;20451;-39
2022/09/22 03:46:02;;;;;;;14.27;3.58;;;9.40;99.90;;;;;;5031139;28;20425;-41
2022/09/22 03:48:29;;;;;;;3.92;3.00;;;9.30;99.90;;;;;;5032502;28;20022;-41
2022/09/22 03:50:56;;;;;;;4.72;3.72;;;9.30;99.90;;;;;;5015093;28;20041;-34
2022/09/22 03:53:22;;;;;;;4.57;3.17;;;9.30;99.90;;;;;;5028126;28;20493;-33
2022/09/22 03:55:48;;;;;;;5.55;4.43;;;9.30;99.90;;;;;;5025913;28;20072;-46
2022/09/22 03:58:14;;;;;;;6.30;3.67;;;9.30;99.90;;;;;;5026273;28;20526;-37
2022/09/22 04:00:40;;;;;;;6.05;3.72;;;9.30;99.90;;;;;;5029361;28;20045;-31
2022/09/22 04:03:06;;;;;;;9.02;4.50;;;9.30;99.90;;;;;;5030647;28;20029;-37
2022/09/22 04:05:32;;;;;;;5.57;3.35;;;9.30;99.90;;;;;;5030207;28;20452;-39
2022/09/22 04:07:58;;;;;;;7.28;3.55;;;9.30;99.90;;;;;;5032117;28;20080;-36
2022/09/22 04:10:24;;;;;;;4.93;3.65;;;9.30;99.90;;;;;;5030276;28;20493;-38
2022/09/22 04:12:49;;;;;;;4.57;3.40;;;9.30;99.90;;;;;;5030174;28;20034;-43
2022/09/22 04:15:15;;;;;;;5.20;3.70;;;9.30;99.90;;;;;;5027296;28;20036;-41
2022/09/22 04:17:41;;;;;;;7.93;3.80;;;9.30;99.90;;;;;;5032196;28;20025;-42
2022/09/22 04:20:08;;;;;;;5.93;3.65;;;9.30;99.90;;;;;;5031386;28;20026;-41
2022/09/22 04:22:33;;;;;;;5.83;4.20;;;9.30;99.90;;;;;;5032633;28;20025;-44
2022/09/22 04:24:59;;;;;;;7.80;3.80;;;9.20;99.90;;;;;;5027113;28;20684;-42
2022/09/22 04:27:25;;;;;;;4.88;3.38;;;9.20;99.90;;;;;;5026080;28;20025;-43
2022/09/22 04:29:51;;;;;;;4.72;3.85;;;9.20;99.90;;;;;;5029523;28;20071;-43
2022/09/22 04:32:17;;;;;;;9.63;4.15;;;9.20;99.90;;;;;;5026001;28;20036;-40
2022/09/22 04:34:43;;;;;;;6.63;4.53;;;9.20;99.90;;;;;;5032868;28;20033;-40
2022/09/22 04:37:10;;;;;;;4.55;3.80;;;9.20;99.90;;;;;;5030725;28;20026;-45
2022/09/22 04:39:36;;;;;;;8.05;3.70;;;9.20;99.90;;;;;;5027517;28;20037;-44
2022/09/22 04:42:02;;;;;;;4.88;3.75;;;9.20;99.90;;;;;;5029204;28;20068;-42
2022/09/22 04:44:28;;;;;;;6.88;3.85;;;9.10;99.90;;;;;;5031869;28;20037;-44
2022/09/22 04:46:55;;;;;;;7.45;4.03;;;9.10;99.90;;;;;;5030676;28;20544;-42
2022/09/22 04:49:22;;;;;;;5.50;4.15;;;9.10;99.90;;;;;;5032644;28;20063;-42
2022/09/22 04:51:47;;;;;;;6.35;3.83;;;9.10;99.90;;;;;;5029812;28;20125;-42
2022/09/22 04:54:13;;;;;;;7.85;3.20;;;9.10;99.90;;;;;;5032367;28;20461;-35
2022/09/22 04:56:40;;;;;;;9.30;4.63;;;9.10;99.90;;;;;;5023251;28;20034;-41
2022/09/22 04:59:06;;;;;;;7.95;4.45;;;9.10;99.90;;;;;;5028877;28;20044;-39
2022/09/22 05:01:32;;;;;;;6.93;3.47;;;9.10;99.90;;;;;;5026846;28;20508;-40
2022/09/22 05:03:57;;;;;;;5.57;3.83;;;9.10;99.90;;;;;;5038468;28;20044;-42
2022/09/22 05:06:23;;;;;;;7.28;3.58;;;9.10;99.90;;;;;;5040156;28;20599;-42
2022/09/22 05:08:49;;;;;;;3.88;3.47;;;9.10;99.90;;;;;;5036210;28;20485;-41
2022/09/22 05:11:15;;;;;;;5.93;3.92;;;9.10;99.90;;;;;;5034977;28;20381;-39
2022/09/22 05:13:40;;;;;;;11.15;4.70;;;9.00;99.90;;;;;;5029789;28;20549;-41
2022/09/22 05:16:07;;;;;;;5.50;3.78;;;9.00;99.90;;;;;;5033188;28;20477;-50
2022/09/22 05:18:33;;;;;;;9.48;3.72;;;9.00;99.90;;;;;;5032959;28;20025;-43
2022/09/22 05:21:00;;;;;;;9.13;5.13;;;8.90;99.90;;;;;;5034502;28;20385;-54
2022/09/22 05:23:26;;;;;;;9.55;4.10;;;9.00;99.90;;;;;;5030730;28;20465;-42
2022/09/22 05:25:51;;;;;;;8.77;4.20;;;9.00;99.90;;;;;;5032025;28;20047;-42
2022/09/22 05:28:20;;;;;;;7.13;3.95;;;9.00;99.90;;;;;;5026736;28;20087;-37
2022/09/22 05:30:51;;;;;;;9.43;4.03;;;9.00;99.90;;;;;;5033681;28;20063;-41
2022/09/22 05:33:17;;;;;;;8.00;4.38;;;9.10;99.90;;;;;;5032373;28;20466;-42
2022/09/22 05:35:42;;;;;;;9.13;4.20;;;9.10;99.90;;;;;;5034964;28;20155;-41
2022/09/22 05:38:08;;;;;;;9.68;4.57;;;9.10;99.90;;;;;;5032108;28;20014;-39
2022/09/22 05:40:34;;;;;;;8.00;4.55;;;9.10;99.90;;;;;;5030976;28;20045;-40
2022/09/22 05:42:59;;;;;;;10.10;4.40;;;9.10;99.90;;;;;;5031728;28;20485;-40
2022/09/22 05:45:25;;;;;;;6.35;4.82;;;9.10;99.90;;;;;;5034450;28;20409;-40
2022/09/22 05:47:52;;;;;;;6.60;3.97;;;9.10;99.90;;;;;;5034352;28;20033;-43
2022/09/22 05:50:19;;;;;;;4.50;3.47;;;9.10;99.90;;;;;;5034485;28;20022;-38
2022/09/22 05:52:45;;;;;;;9.57;4.43;;;9.20;99.90;;;;;;5033162;28;20465;-43
2022/09/22 05:55:12;;;;;;;12.27;4.63;;;9.20;99.90;;;;;;5034801;28;20025;-47
2022/09/22 05:57:37;;;;;;;11.20;4.40;;;9.20;99.90;;;;;;5027651;28;20027;-41
2022/09/22 06:00:06;;;;;;;10.02;4.82;;;9.30;99.90;;;;;;5027805;28;20029;-57
2022/09/22 06:02:31;;;;;;;7.53;4.50;;;9.30;99.90;;;;;;5025466;28;20490;-37
2022/09/22 06:04:57;;;;;;;8.20;4.97;;;9.40;99.90;;;;;;5034493;28;20036;-41
2022/09/22 06:07:23;;;;;;;10.05;4.28;;;9.40;99.90;;;;;;5032653;28;20037;-42
2022/09/22 06:09:49;;;;;;;9.57;5.32;;;9.60;99.90;;;;;;5016067;28;20429;-42
2022/09/22 06:12:15;;;;;;;10.82;4.88;;;9.70;99.90;;;;;;5032777;28;20061;-41
2022/09/22 06:14:41;;;;;;;7.95;5.55;;;9.80;99.90;;;;;;5030132;28;20485;-41
2022/09/22 06:17:10;;;;;;;8.20;5.13;;;9.90;99.90;;;;;;5034278;28;20030;-42
2022/09/22 06:19:40;;;;;;;9.63;6.45;;;10.10;99.90;;;;;;5027416;28;20029;-43
2022/09/22 06:22:07;;;;;;;12.00;5.90;;;10.30;99.90;;;;;;5031154;28;20024;-43
2022/09/22 06:24:33;;;;;;;15.70;5.90;;;10.50;99.90;;;;;;5033857;28;20071;-41
2022/09/22 06:27:17;;;;;;;9.90;5.22;;;10.50;99.90;;;;;;5029149;28;20498;-44
2022/09/22 06:29:43;;;;;;;14.38;5.13;;;10.70;99.90;;;;;;5031879;28;20030;-40
2022/09/22 06:32:09;;;;;;;7.75;5.32;;;10.80;99.90;;;;;;5023326;28;20105;-39
2022/09/22 06:34:36;;;;;;;7.72;4.45;;;11.00;99.90;;;;;;5024525;28;20108;-41
2022/09/22 06:37:08;;;;;;;7.70;5.35;;;11.10;99.90;;;;;;5033835;28;20074;-39
2022/09/22 06:39:37;;;;;;;13.70;5.75;;;11.10;99.90;;;;;;5033692;28;20481;-40
2022/09/22 06:42:04;;;;;;;15.23;6.10;;;11.20;99.90;;;;;;5034142;28;20049;-41
2022/09/22 06:44:30;;;;;;;10.02;5.57;;;11.30;99.90;;;;;;5028580;28;20485;-42
2022/09/22 06:46:56;;;;;;;6.10;4.85;;;11.40;99.90;;;;;;5028563;28;20033;-43
2022/09/22 06:49:21;;;;;;;12.55;5.25;;;11.50;99.90;;;;;;5027848;28;20041;-48
2022/09/22 06:51:48;;;;;;;10.70;5.93;;;11.50;99.90;;;;;;5033077;28;20100;-43
2022/09/22 06:54:14;;;;;;;13.10;5.40;;;11.60;99.90;;;;;;5033097;28;20021;-31
2022/09/22 06:56:42;;;;;;;11.45;5.85;;;11.60;99.90;;;;;;5031965;28;20100;-34
2022/09/22 06:59:15;;;;;;;13.38;6.32;;;11.70;99.90;;;;;;5031883;28;20033;-44
2022/09/22 07:01:43;;;;;;;8.00;5.40;;;11.80;99.90;;;;;;5033194;28;20038;-37
2022/09/22 07:04:09;;;;;;;12.95;5.75;;;11.90;99.90;;;;;;5031810;28;20041;-37
2022/09/22 07:06:36;;;;;;;6.65;5.07;;;12.00;99.90;;;;;;5019417;28;20029;-33
2022/09/22 07:09:03;;;;;;;11.07;5.95;;;12.00;99.90;;;;;;5014658;28;20454;-32
2022/09/22 07:11:29;;;;;;;10.33;5.50;;;12.10;99.90;;;;;;5015206;28;20653;-37
2022/09/22 07:13:57;;;;;;;12.57;6.13;;;12.20;99.90;;;;;;5032002;28;20287;-37
2022/09/22 07:16:24;;;;;;;15.20;6.40;;;12.20;99.90;;;;;;5033462;28;20504;-41
2022/09/22 07:18:55;;;;;;;9.05;5.40;;;12.30;99.90;;;;;;5032526;28;20021;-32
2022/09/22 07:21:26;;;;;;;7.95;5.13;;;12.30;99.90;;;;;;5028954;28;20512;-39
2022/09/22 07:23:56;;;;;;;12.57;5.55;;;12.40;99.90;;;;;;5019926;28;20029;-35
2022/09/22 07:26:27;;;;;;;8.02;5.25;;;12.50;99.90;;;;;;5030277;28;20513;-34
2022/09/22 07:28:53;;;;;;;10.68;5.55;;;12.50;99.90;;;;;;5030775;28;20017;-35
2022/09/22 07:31:20;;;;;;;11.57;6.38;;;12.60;99.90;;;;;;5030329;28;20486;-31
2022/09/22 07:33:46;;;;;;;6.35;4.90;;;12.70;99.90;;;;;;5030383;28;20435;-39
2022/09/22 07:36:15;;;;;;;8.50;4.95;;;12.80;99.90;;;;;;5033182;28;20061;-34
2022/09/22 07:38:42;;;;;;;11.35;5.95;;;12.80;99.90;;;;;;5030779;28;20068;-35
2022/09/22 07:41:11;;;;;;;15.05;5.30;;;12.90;99.90;;;;;;5031142;28;20120;-35
2022/09/22 07:43:37;;;;;;;11.20;5.47;;;13.10;99.90;;;;;;5029421;28;20399;-36
2022/09/22 07:46:04;;;;;;;8.18;5.32;;;13.20;99.90;;;;;;5028349;28;20485;-32
2022/09/22 07:48:36;;;;;;;7.55;5.32;;;13.30;99.90;;;;;;5029108;28;20513;-34
2022/09/22 07:51:08;;;;;;;8.48;5.55;;;13.30;99.90;;;;;;5028608;28;20478;-32
2022/09/22 07:53:34;;;;;;;17.45;6.25;;;13.40;99.90;;;;;;5022891;28;20031;-31
2022/09/22 07:56:05;;;;;;;9.23;5.13;;;13.60;99.90;;;;;;5028695;28;20075;-32
2022/09/22 07:58:32;;;;;;;9.90;4.90;;;13.60;99.90;;;;;;5027385;28;20029;-41
2022/09/22 08:01:03;;;;;;;11.93;5.45;;;13.80;99.90;;;;;;5029329;28;20101;-30
2022/09/22 08:03:29;;;;;;;6.10;4.22;;;14.00;99.90;;;;;;5031138;28;20104;-35
2022/09/22 08:06:01;;;;;;;7.57;4.90;;;14.20;99.90;;;;;;5031500;28;20033;-34
2022/09/22 08:08:31;;;;;;;9.82;5.00;;;14.30;99.90;;;;;;5027314;28;20147;-36
2022/09/22 08:11:03;;;;;;;10.60;5.32;;;14.40;99.90;;;;;;5015499;28;20022;-36
2022/09/22 08:13:30;;;;;;;8.07;4.57;;;14.50;99.90;;;;;;5013113;28;20109;-31
2022/09/22 08:15:55;;;;;;;6.57;4.20;;;14.70;99.90;;;;;;5029969;28;20018;-31
2022/09/22 08:18:21;;;;;;;15.52;4.45;;;14.80;99.90;;;;;;5030795;28;20025;-34
2022/09/22 08:20:46;;;;;;;7.05;4.28;;;14.90;99.90;;;;;;5029393;28;20060;-37
2022/09/22 08:23:12;;;;;;;9.85;4.03;;;14.90;99.90;;;;;;5025715;28;20026;-32
2022/09/22 08:25:39;;;;;;;9.02;4.43;;;15.00;99.90;;;;;;5016962;28;20029;-31
2022/09/22 08:28:04;;;;;;;7.63;4.20;;;15.10;99.90;;;;;;5026959;28;20116;-32
2022/09/22 08:30:30;;;;;;;6.68;3.80;;;15.20;99.90;;;;;;5021280;28;20121;-34
2022/09/22 08:32:58;;;;;;;7.88;4.15;;;15.30;99.90;;;;;;5019377;28;20030;-31
2022/09/22 08:35:24;;;;;;;6.63;3.60;;;15.30;99.90;;;;;;5020343;28;20104;-35
2022/09/22 08:37:50;;;;;;;8.32;4.30;;;15.40;99.90;;;;;;5030673;28;20689;-41
2022/09/22 08:40:19;;;;;;;9.95;4.05;;;15.50;99.90;;;;;;5031365;28;20065;-39
2022/09/22 08:42:45;;;;;;;7.28;4.60;;;15.60;99.90;;;;;;5031017;28;20464;-41
2022/09/22 08:45:43;;;;;;;8.80;4.57;;;15.70;99.90;;;;;;5037947;28;20041;-41
2022/09/22 08:53:50;;;;;;;6.45;3.65;;;16.00;99.90;;;;;;5026456;28;20122;-39
2022/09/22 08:56:28;;;;;;;7.67;4.30;;;16.10;99.90;;;;;;5023053;28;20424;-35
2022/09/22 08:59:16;;;;;;;7.00;4.32;;;16.10;99.90;;;;;;5034167;28;20034;-40
2022/09/22 09:02:05;;;;;;;7.63;3.80;;;16.30;99.90;;;;;;5033020;28;20061;-41
2022/09/22 09:04:55;;;;;;;5.85;3.78;;;16.40;99.90;;;;;;5026289;28;20497;-40
2022/09/22 09:07:56;;;;;;;8.10;4.28;;;16.50;99.90;;;;;;5034818;28;20037;-42
2022/09/22 09:10:54;;;;;;;5.60;4.07;;;16.60;99.90;;;;;;5027417;28;20034;-36
2022/09/22 09:13:47;;;;;;;7.20;3.50;;;16.80;99.90;;;;;;5028304;28;20452;-40
2022/09/22 09:16:37;;;;;;;6.57;4.03;;;16.90;99.90;;;;;;5035068;28;20132;-49
2022/09/22 09:19:13;;;;;;;4.63;4.10;;;17.00;99.90;;;;;;5025230;28;20028;-39
2022/09/22 09:21:43;;;;;;;8.73;4.43;;;17.10;99.90;;;;;;5034268;28;20033;-39
2022/09/22 09:24:42;;;;;;;6.53;3.70;;;17.10;99.90;;;;;;5035517;28;20034;-40
2022/09/22 09:27:14;;;;;;;7.40;4.00;;;17.10;99.90;;;;;;5020688;28;20079;-39
2022/09/22 09:30:02;;;;;;;7.78;3.92;;;17.30;99.90;;;;;;5041374;28;20034;-41
2022/09/22 09:32:36;;;;;;;7.28;3.88;;;17.30;99.90;;;;;;5029992;28;20053;-39
2022/09/22 09:35:03;;;;;;;8.27;3.20;;;17.40;99.90;;;;;;5033638;28;20037;-40
2022/09/22 09:37:30;;;;;;;5.82;3.10;;;17.40;99.90;;;;;;5031777;28;20529;-38
2022/09/22 09:39:59;;;;;;;4.05;2.53;;;17.50;99.90;;;;;;5034936;28;20030;-38
2022/09/22 09:42:30;;;;;;;8.27;3.03;;;17.60;99.90;;;;;;5034264;28;20028;-40
2022/09/22 09:45:01;;;;;;;5.53;3.13;;;17.80;99.90;;;;;;5030470;28;20507;-40
2022/09/22 09:47:48;;;;;;;6.97;3.35;;;17.80;99.90;;;;;;5033061;28;20032;-39
2022/09/22 09:50:15;;;;;;;3.90;3.17;;;17.90;99.90;;;;;;5026997;28;20033;-41
2022/09/22 09:52:41;;;;;;;5.95;3.30;;;18.10;99.90;;;;;;5015234;28;20536;-40
2022/09/22 09:55:26;;;;;;;4.25;3.28;;;18.10;99.90;;;;;;5022282;28;20108;-40
2022/09/22 10:00:29;;;;;;;4.88;3.20;;;18.20;99.90;;;;;;5035619;28;20059;-39
2022/09/22 10:00:59;;;;;;;5.38;3.10;;;18.40;99.90;;;;;;5034978;28;20034;-40
2022/09/22 10:03:29;;;;;;;6.30;3.63;;;18.30;99.90;;;;;;5035158;28;20025;-38
2022/09/22 10:06:08;;;;;;;5.43;3.88;;;18.40;99.90;;;;;;5035213;28;20538;-40
2022/09/22 10:08:43;;;;;;;6.72;3.08;;;18.40;99.90;;;;;;5035352;28;20505;-38
2022/09/22 10:11:11;;;;;;;5.57;2.95;;;18.50;99.90;;;;;;5035081;28;20506;-39
2022/09/22 10:13:39;;;;;;;5.38;2.80;;;18.50;99.90;;;;;;5034544;28;20052;-42
2022/09/22 10:16:27;;;;;;;3.80;3.05;;;18.50;99.90;;;;;;5034962;28;20540;-39
2022/09/22 10:19:28;;;;;;;3.72;2.78;;;18.60;99.90;;;;;;5034895;28;20022;-40
2022/09/22 10:22:16;;;;;;;4.18;2.53;;;18.70;99.90;;;;;;5030209;28;20493;-40
2022/09/22 10:24:58;;;;;;;5.60;2.58;;;18.70;99.90;;;;;;5034720;28;20022;-41
2022/09/22 10:27:25;;;;;;;4.82;3.25;;;18.70;99.90;;;;;;5034773;28;20029;-42
2022/09/22 10:30:09;;;;;;;4.97;2.50;;;18.80;99.90;;;;;;5032648;28;20128;-40
2022/09/22 10:32:36;;;;;;;6.90;2.80;;;18.90;99.90;;;;;;5015014;28;20029;-41
2022/09/22 10:35:28;;;;;;;5.37;3.00;;;18.90;99.90;;;;;;5014859;28;20026;-40
2022/09/22 10:38:06;;;;;;;4.75;2.85;;;18.90;99.90;;;;;;5014764;28;20425;-53
2022/09/22 10:40:34;;;;;;;10.05;2.92;;;19.00;99.90;;;;;;5013633;28;20402;-40
2022/09/22 10:43:03;;;;;;;6.25;2.88;;;19.00;99.90;;;;;;5014713;28;20482;-60
2022/09/22 10:46:15;;;;;;;3.83;2.85;;;19.00;99.90;;;;;;5014911;28;20029;-38
2022/09/22 10:48:53;;;;;;;6.90;3.20;;;19.10;99.90;;;;;;5013375;28;20045;-39
2022/09/22 10:51:44;;;;;;;5.90;3.42;;;19.30;99.90;;;;;;5016595;28;20494;-38
2022/09/22 10:54:19;;;;;;;5.05;3.53;;;19.40;99.90;;;;;;5030395;28;20034;-39
2022/09/22 10:56:52;;;;;;;6.85;3.03;;;19.40;99.90;;;;;;5024000;28;20125;-34
2022/09/22 10:59:26;;;;;;;2.97;2.60;;;19.60;99.80;;;;;;5025043;28;20492;-34
2022/09/22 11:01:54;;;;;;;12.60;3.13;;;19.60;99.40;;;;;;5021917;28;20029;-33
2022/09/22 11:04:20;;;;;;;5.95;3.05;;;19.60;98.70;;;;;;5016098;28;20391;-35
2022/09/22 11:12:50;;;;;;;8.43;2.83;;;19.70;99.30;;;;;;5033969;28;20098;-35
2022/09/22 11:15:29;;;;;;;7.20;2.60;;;19.80;99.90;;;;;;5033527;28;20485;-37
2022/09/22 11:18:11;;;;;;;3.05;2.42;;;19.90;98.70;;;;;;5033616;28;20367;-35
2022/09/22 11:20:47;;;;;;;6.05;2.95;;;20.00;98.20;;;;;;5033192;28;20497;-32
2022/09/22 11:23:34;;;;;;;6.60;3.45;;;20.00;99.20;;;;;;5033523;28;20030;-31
2022/09/22 11:26:08;;;;;;;;;;;20.00;99.70;;;;;;5033924;28;20048;-35
2022/09/22 11:28:42;;;;;;;3.03;2.60;;;20.00;99.90;;;;;;5033726;28;19920;-32
2022/09/22 11:31:25;;;;;;;4.20;2.88;;;20.10;98.70;;;;;;5033283;28;20069;-35
2022/09/22 11:34:18;;;;;;;6.88;2.67;;;20.20;98.60;;;;;;5033358;28;20033;-36
2022/09/22 11:36:58;;;;;;;2.78;1.95;;;20.30;99.00;;;;;;5032841;28;20052;-34
2022/09/22 11:39:54;;;;;;;2.00;1.67;;;20.30;98.10;;;;;;5033618;28;20485;-35
2022/09/22 11:42:31;;;;;;;3.42;2.20;;;20.40;97.40;;;;;;5033114;28;20042;-33
2022/09/22 11:45:16;;;;;;;4.63;1.48;;;20.50;97.00;;;;;;5033246;28;20473;-34
2022/09/22 11:47:54;;;;;;;2.92;1.40;;;20.50;97.50;;;;;;5031786;28;20029;-35
2022/09/22 11:50:26;;;;;;;2.40;1.13;;;20.60;97.30;;;;;;5032985;28;20474;-32
2022/09/22 11:53:01;;;;;;;3.47;1.48;;;20.70;97.50;;;;;;5033047;28;20025;-36
2022/09/22 11:55:44;;;;;;;2.85;0.98;;;20.80;97.00;;;;;;5032449;28;20105;-34
2022/09/22 11:58:21;;;;;;;0.60;0.60;;;20.90;97.50;;;;;;5033021;28;20028;-31
2022/09/22 12:00:53;;;;;;;2.60;0.50;;;20.90;97.50;;;;;;5033028;28;20057;-31
2022/09/22 12:03:25;;;;;;;2.35;0.90;;;20.90;95.80;;;;;;5032892;28;20032;-36
2022/09/22 12:05:55;;;;;;;2.45;0.80;;;20.90;96.80;;;;;;5028011;28;20478;-33
2022/09/22 12:08:35;;;;;;;1.50;1.00;;;21.00;96.70;;;;;;5018902;28;20104;-32
2022/09/22 12:11:04;;;;;;;1.33;1.00;;;21.00;96.80;;;;;;5028320;28;20040;-41
2022/09/22 12:13:32;;;;;;;1.65;1.00;;;20.90;97.70;;;;;;5025143;28;20026;-33
2022/09/22 12:16:04;;;;;;;3.95;1.15;;;20.90;97.50;;;;;;5028240;28;20485;-32
2022/09/22 12:18:58;;;;;;;3.22;0.80;;;21.00;97.40;;;;;;5032188;28;20014;-31
2022/09/22 12:21:27;;;;;;;1.17;1.08;;;21.10;96.50;;;;;;5032965;28;20021;-35
2022/09/22 12:23:54;;;;;;;2.15;1.10;;;21.20;96.50;;;;;;5032695;28;20032;-42
2022/09/22 12:26:34;;;;;;;2.70;1.15;;;21.20;96.00;;;;;;5033005;28;20022;-33
2022/09/22 12:29:17;;;;;;;1.27;1.00;;;21.40;94.90;;;;;;5032215;28;20024;-33
2022/09/22 12:31:48;;;;;;;4.05;1.30;;;21.40;94.40;;;;;;5032637;28;20136;-33
2022/09/22 12:34:17;;;;;;;1.92;0.95;;;21.20;96.50;;;;;;5032810;28;20021;-34
2022/09/22 12:36:43;;;;;;;2.08;1.48;;;21.20;97.30;;;;;;5032642;28;20470;-34
2022/09/22 12:39:30;;;;;;;1.17;0.88;;;21.20;97.30;;;;;;5032575;28;20473;-35
2022/09/22 12:42:04;;;;;;;1.15;0.75;;;21.20;96.20;;;;;;5032424;28;20132;-32
2022/09/22 12:44:44;;;;;;;2.63;1.13;;;21.20;95.70;;;;;;5030404;28;20504;-33
2022/09/22 12:47:33;;;;;;;1.85;1.17;;;21.20;95.70;;;;;;5012825;28;20537;-32
2022/09/22 12:50:26;;;;;;;0.93;0.68;;;21.30;96.10;;;;;;5018867;28;20400;-33
2022/09/22 12:52:52;;;;;;;4.05;0.98;;;21.30;95.50;;;;;;5032394;28;20029;-32
2022/09/22 12:55:28;;;;;;;1.48;0.77;;;21.40;97.00;;;;;;5032484;28;20478;-32
2022/09/22 12:57:59;;;;;;;1.20;0.80;;;21.40;97.20;;;;;;5031179;28;20071;-37
2022/09/22 13:00:36;;;;;;;2.60;1.10;;;21.50;96.50;;;;;;5032492;28;20304;-34
2022/09/22 13:03:24;;;;;;;2.42;1.05;;;21.50;96.90;;;;;;5034471;28;20501;-32
2022/09/22 13:06:02;;;;;;;3.40;1.05;;;21.50;95.40;;;;;;5028766;28;20053;-34
2022/09/22 13:08:31;;;;;;;2.33;0.80;;;21.40;96.50;;;;;;5031248;28;20070;-30
2022/09/22 13:11:22;;;;;;;0.88;0.77;;;21.50;95.60;;;;;;5047773;28;20029;-39
2022/09/22 13:13:49;;;;;;;3.38;0.80;;;21.70;96.00;;;;;;5030402;28;20021;-32
2022/09/22 13:16:15;;;;;;;1.48;1.08;;;21.70;96.30;;;;;;5021992;28;20385;-33
2022/09/22 13:18:53;;;;;;;1.30;1.02;;;21.60;95.90;;;;;;5030536;28;20052;-33
2022/09/22 13:21:32;;;;;;;1.60;0.70;;;21.70;95.80;;;;;;5029256;28;20045;-33
2022/09/22 13:24:03;;;;;;;1.92;0.95;;;21.70;94.70;;;;;;5030625;28;20567;-36
2022/09/22 13:26:33;;;;;;;1.10;1.10;;;21.70;94.70;;;;;;5032520;28;20083;-30
2022/09/22 13:29:28;;;;;;;1.42;0.65;;;21.70;95.70;;;;;;5034257;28;20072;-34